Atlanta, ID (83601)

2:02 PM MST on December 19, 2014 (GMT -0700)
RAWS WAGONTOWN ID US | Change Station
CLOSE
Current Station
Personal Weather Station
Location: Atlanta, ID
Elevation: 6171 ft
Nearby Weather Stations

Elev 6171 ft 43.57 °N, 115.33 °W | Updated 53 minutes ago

Snow
Snow
31 °F
Feels Like 31 °F
N
1
Wind Variable Wind from South
Gusts 6.0 mph

Today
High -- | Low -- °F
--% Chance of Precip.
Yesterday
High -- | Low -- °F
Precip. -- in
8:11 AM 5:05 PM
Waning Crescent, 6% visible
Pressure 30.05 in
Visibility 1.0 miles
Clouds Overcast 900 ft
Windchill 31 °F
Dew Point 29 °F
Humidity 94%
Rainfall 0.00 in
Snow Depth Not available.
UV 1 out of 12
Pollen .10 out of 12
Air Quality Not available.
Flu Activity Not available.
METAR KSUN 192047Z 15004KT 1SM -SN OVC009 01/00 A3005

More Conditions Fewer Conditions

Pressure 30.05 in
Visibility 1.0 miles
Clouds Overcast 900 ft
Windchill 31 °F
Dew Point 29 °F
Humidity 94%
Rainfall 0.00 in
Snow Depth Not available.
UV 1 out of 12
Pollen .10 out of 12
Air Quality Not available.
Flu Activity Not available.
METAR KSUN 192047Z 15004KT 1SM -SN OVC009 01/00 A3005

More Conditions Fewer Conditions

10-Day Weather Forecast

Almanac

Astronomy

Dec. 19, 2014 Rise Set
Actual Time
Civil Twilight
Nautical Twilight
Astronomical Twilight
Moon
Length of Visible Light
Length of Day
Tomorrow will be .
, % of the Moon is Illuminated

Today's Extremes

State Highs State Lows

Community

WunderPhotos

Upload Photos

1,779,051 photos uploaded!

WunderBlogs® & News

Nearby

Air Quality

  Air Quality AQ Index Pollutant
Not available.

Snow Depth

Station Depth Elevation

Earthquake Activity

City Distance Mag. Time & Date
Minimum magnitude displayed is 2.5.

Coastal Water Temperatures

Place Temperature

Nearby Weather Stations